Time;durP1;ratioP1;P1;durP2;ratioP2;P2;SDS_P1;SDS_P2;PMS_P1;PMS_P2;Temp;Humidity;BMP_temperature;BMP_pressure;BME280_temperature;BME280_humidity;BME280_pressure;Samples;Min_cycle;Max_cycle;Signal;HPM_P1;HPM_P2
2023/08/11 00:01:54;;;;;;;0.50;0.40;;;16.40;99.90;;;;;;5044397;28;20439;-79
2023/08/11 00:04:21;;;;;;;0.50;0.40;;;16.40;99.90;;;;;;5042558;28;20443;-77
2023/08/11 00:06:48;;;;;;;0.50;0.33;;;16.30;99.90;;;;;;5040456;28;20475;-78
2023/08/11 00:09:15;;;;;;;0.50;0.40;;;16.30;99.90;;;;;;5041093;28;20495;-78
2023/08/11 00:11:42;;;;;;;0.50;0.40;;;16.30;99.90;;;;;;5043601;28;20468;-78
2023/08/11 00:14:10;;;;;;;0.50;0.40;;;16.30;99.90;;;;;;5043956;28;20448;-78
2023/08/11 00:16:37;;;;;;;0.50;0.40;;;16.30;99.90;;;;;;5047468;28;20440;-77
2023/08/11 00:19:04;;;;;;;0.50;0.30;;;16.30;99.90;;;;;;5048367;28;20863;-78
2023/08/11 00:21:31;;;;;;;0.50;0.40;;;16.30;99.90;;;;;;5045972;28;20497;-77
2023/08/11 00:23:57;;;;;;;0.50;0.40;;;16.20;99.90;;;;;;5044551;28;20543;-77
2023/08/11 00:26:24;;;;;;;0.50;0.40;;;16.20;99.90;;;;;;5044092;28;20476;-78
2023/08/11 00:28:51;;;;;;;0.50;0.40;;;16.20;99.90;;;;;;5045354;28;20817;-79
2023/08/11 00:31:20;;;;;;;0.50;0.40;;;16.20;99.90;;;;;;5048428;28;20472;-79
2023/08/11 00:33:48;;;;;;;0.50;0.40;;;16.20;99.90;;;;;;5053054;28;20448;-78
2023/08/11 00:36:15;;;;;;;0.50;0.30;;;16.20;99.90;;;;;;5051573;28;20495;-78
2023/08/11 00:38:41;;;;;;;0.50;0.40;;;16.30;99.90;;;;;;5040292;28;20440;-75
2023/08/11 00:41:08;;;;;;;0.50;0.40;;;16.30;99.90;;;;;;5047619;28;20464;-78
2023/08/11 00:43:35;;;;;;;0.50;0.40;;;16.30;99.90;;;;;;5050595;28;20523;-77
2023/08/11 00:46:10;;;;;;;0.50;0.40;;;16.30;99.90;;;;;;5051899;28;20449;-79
2023/08/11 00:48:39;;;;;;;0.50;0.30;;;16.30;99.90;;;;;;5049293;28;20440;-79
2023/08/11 00:51:06;;;;;;;0.50;0.40;;;16.20;99.90;;;;;;5047249;28;20482;-79
2023/08/11 00:53:34;;;;;;;0.50;0.40;;;16.20;99.90;;;;;;5049765;28;20493;-77
2023/08/11 00:56:03;;;;;;;0.50;0.40;;;16.20;99.90;;;;;;5047888;28;20438;-81
2023/08/11 00:58:31;;;;;;;0.50;0.40;;;16.20;99.90;;;;;;5056779;28;20440;-80
2023/08/11 01:00:58;;;;;;;0.50;0.40;;;16.20;99.90;;;;;;5048263;28;20503;-79
2023/08/11 01:03:25;;;;;;;0.50;0.40;;;16.20;99.90;;;;;;5047918;28;20488;-79
2023/08/11 01:06:03;;;;;;;0.50;0.40;;;16.10;99.90;;;;;;5052486;28;20928;-78
2023/08/11 01:08:37;;;;;;;0.50;0.37;;;16.10;99.90;;;;;;5042875;28;20480;-79
2023/08/11 01:11:12;;;;;;;0.50;0.40;;;16.10;99.90;;;;;;5051929;28;20484;-79
2023/08/11 01:13:44;;;;;;;0.50;0.40;;;16.10;99.90;;;;;;5043785;28;20440;-79
2023/08/11 01:16:13;;;;;;;0.50;0.40;;;16.10;99.90;;;;;;5044974;28;20436;-79
2023/08/11 01:18:40;;;;;;;0.50;0.30;;;16.10;99.90;;;;;;5051104;28;20443;-79
2023/08/11 01:21:13;;;;;;;0.50;0.40;;;16.10;99.90;;;;;;5044997;28;20463;-79
2023/08/11 01:23:43;;;;;;;0.50;0.40;;;16.00;99.90;;;;;;5051200;28;20452;-79
2023/08/11 01:26:11;;;;;;;0.50;0.40;;;16.00;99.90;;;;;;5051711;28;20444;-80
2023/08/11 01:28:38;;;;;;;0.50;0.40;;;16.00;99.90;;;;;;5048814;28;21141;-80
2023/08/11 01:31:04;;;;;;;0.50;0.40;;;16.00;99.90;;;;;;5048004;28;20465;-80
2023/08/11 01:33:31;;;;;;;0.50;0.40;;;16.00;99.90;;;;;;5048778;28;20452;-79
2023/08/11 01:35:58;;;;;;;0.50;0.30;;;15.90;99.90;;;;;;5051187;28;20439;-79
2023/08/11 01:38:25;;;;;;;0.50;0.40;;;15.90;99.90;;;;;;5050255;28;20959;-79
2023/08/11 01:40:53;;;;;;;0.50;0.40;;;15.80;99.90;;;;;;5047997;28;20471;-79
2023/08/11 01:43:21;;;;;;;0.50;0.30;;;15.80;99.90;;;;;;5048315;28;20440;-78
2023/08/11 01:45:49;;;;;;;0.50;0.40;;;15.80;99.90;;;;;;5039196;28;20444;-79
2023/08/11 01:48:18;;;;;;;0.50;0.40;;;15.70;99.90;;;;;;5047525;28;20480;-79
2023/08/11 01:50:45;;;;;;;0.50;0.40;;;15.70;99.90;;;;;;5050271;28;20467;-78
2023/08/11 01:53:12;;;;;;;0.50;0.40;;;15.70;99.90;;;;;;5050474;28;20444;-79
2023/08/11 01:55:40;;;;;;;1.17;1.17;;;15.70;99.90;;;;;;5047572;28;20451;-80
2023/08/11 01:58:08;;;;;;;0.50;0.40;;;15.70;99.90;;;;;;5045143;28;20448;-78
2023/08/11 02:00:35;;;;;;;0.50;0.40;;;15.70;99.90;;;;;;5048703;28;20467;-79
2023/08/11 02:03:02;;;;;;;0.50;0.40;;;15.70;99.90;;;;;;5046833;28;20516;-80
2023/08/11 02:05:29;;;;;;;0.50;0.40;;;15.60;99.90;;;;;;5047599;28;20452;-78
2023/08/11 02:07:56;;;;;;;0.50;0.40;;;15.60;99.90;;;;;;5050058;28;20483;-80
2023/08/11 02:10:23;;;;;;;0.77;0.77;;;15.50;99.90;;;;;;5050523;28;20470;-78
2023/08/11 02:12:49;;;;;;;0.50;0.40;;;15.50;99.90;;;;;;5050316;28;20475;-78
2023/08/11 02:15:18;;;;;;;0.50;0.40;;;15.50;99.90;;;;;;5042549;28;20444;-79
2023/08/11 02:17:45;;;;;;;0.50;0.40;;;15.50;99.90;;;;;;5048935;28;20510;-79
2023/08/11 02:20:18;;;;;;;0.70;0.70;;;15.50;99.90;;;;;;5049887;28;20472;-79
2023/08/11 02:22:45;;;;;;;0.50;0.40;;;15.50;99.90;;;;;;5046636;28;20521;-79
2023/08/11 02:25:12;;;;;;;0.50;0.40;;;15.50;99.90;;;;;;5046394;28;20799;-78
2023/08/11 02:27:39;;;;;;;0.50;0.40;;;15.40;99.90;;;;;;5045900;28;20499;-79
2023/08/11 02:30:10;;;;;;;0.50;0.40;;;15.40;99.90;;;;;;5044110;28;20452;-78
2023/08/11 02:32:39;;;;;;;0.50;0.40;;;15.40;99.90;;;;;;5048555;28;20452;-79
2023/08/11 02:35:06;;;;;;;0.50;0.40;;;15.40;99.90;;;;;;5037950;28;21025;-80
2023/08/11 02:37:33;;;;;;;0.50;0.40;;;15.40;99.90;;;;;;5045537;28;20431;-79
2023/08/11 02:40:00;;;;;;;0.50;0.40;;;15.40;99.90;;;;;;5042264;28;20906;-78
2023/08/11 02:42:27;;;;;;;0.50;0.40;;;15.30;99.90;;;;;;5049480;28;20906;-80
2023/08/11 02:44:54;;;;;;;0.70;0.70;;;15.30;99.90;;;;;;5037835;28;20953;-80
2023/08/11 02:47:20;;;;;;;0.50;0.30;;;15.30;99.90;;;;;;5045408;28;20854;-79
2023/08/11 02:49:48;;;;;;;0.50;0.40;;;15.30;99.90;;;;;;5048528;28;20448;-77
2023/08/11 02:52:15;;;;;;;0.50;0.40;;;15.30;99.90;;;;;;5048170;28;20443;-79
2023/08/11 02:54:42;;;;;;;0.50;0.40;;;15.30;99.90;;;;;;5046871;28;20526;-79
2023/08/11 02:57:09;;;;;;;0.50;0.40;;;15.30;99.90;;;;;;5050857;28;20432;-78
2023/08/11 02:59:36;;;;;;;0.50;0.40;;;15.30;99.90;;;;;;5047846;28;20446;-78
2023/08/11 03:02:02;;;;;;;0.50;0.40;;;15.20;99.90;;;;;;5045988;28;20448;-78
2023/08/11 03:04:29;;;;;;;0.50;0.30;;;15.20;99.90;;;;;;5045645;28;20440;-77
2023/08/11 03:06:57;;;;;;;0.50;0.40;;;15.20;99.90;;;;;;5048897;28;20832;-78
2023/08/11 03:09:24;;;;;;;0.50;0.40;;;15.20;99.90;;;;;;5049633;28;20443;-78
2023/08/11 03:11:51;;;;;;;0.50;0.40;;;15.20;99.90;;;;;;5045666;28;20459;-78
2023/08/11 03:14:20;;;;;;;0.50;0.40;;;15.10;99.90;;;;;;5046157;28;20455;-78
2023/08/11 03:16:47;;;;;;;0.50;0.40;;;15.10;99.90;;;;;;5047377;28;20503;-78
2023/08/11 03:19:14;;;;;;;0.50;0.40;;;15.10;99.90;;;;;;5048926;28;20444;-78
2023/08/11 03:21:41;;;;;;;0.50;0.40;;;15.00;99.90;;;;;;5040113;28;20488;-78
2023/08/11 03:24:09;;;;;;;0.50;0.40;;;15.00;99.90;;;;;;5048625;28;20443;-78
2023/08/11 03:26:36;;;;;;;0.50;0.40;;;15.00;99.90;;;;;;5046680;28;20435;-78
2023/08/11 03:29:03;;;;;;;0.50;0.40;;;15.00;99.90;;;;;;5044880;28;21009;-78
2023/08/11 03:31:30;;;;;;;0.50;0.40;;;15.00;99.90;;;;;;5045108;28;20468;-78
2023/08/11 03:33:57;;;;;;;0.50;0.40;;;15.00;99.90;;;;;;5037594;28;20436;-78
2023/08/11 03:36:24;;;;;;;0.50;0.40;;;15.00;99.90;;;;;;5045062;28;20476;-78
2023/08/11 03:38:50;;;;;;;0.50;0.40;;;15.00;99.90;;;;;;5046490;28;20472;-78
2023/08/11 03:41:19;;;;;;;0.50;0.40;;;15.00;99.90;;;;;;5048371;28;20471;-78
2023/08/11 03:43:45;;;;;;;0.50;0.40;;;15.00;99.90;;;;;;5046033;28;20451;-78
2023/08/11 03:46:12;;;;;;;0.50;0.37;;;15.00;99.90;;;;;;5045346;28;20702;-78
2023/08/11 03:48:39;;;;;;;0.50;0.40;;;15.00;99.90;;;;;;5046793;28;20480;-78
2023/08/11 03:51:06;;;;;;;0.50;0.30;;;14.90;99.90;;;;;;5049201;28;20459;-78
2023/08/11 03:53:34;;;;;;;0.50;0.40;;;14.90;99.90;;;;;;5048540;28;20477;-78
2023/08/11 03:56:01;;;;;;;0.50;0.40;;;14.90;99.90;;;;;;5036952;28;20810;-78
2023/08/11 03:58:30;;;;;;;0.50;0.37;;;14.90;99.90;;;;;;5045426;28;20933;-78
2023/08/11 04:00:58;;;;;;;0.50;0.40;;;14.90;99.90;;;;;;5047333;28;20463;-78
2023/08/11 04:03:27;;;;;;;0.50;0.40;;;14.90;99.90;;;;;;5047363;28;20439;-78
2023/08/11 04:05:54;;;;;;;0.50;0.40;;;14.90;99.90;;;;;;5044378;28;20517;-78
2023/08/11 04:08:21;;;;;;;0.50;0.37;;;14.90;99.90;;;;;;5046014;28;20478;-79
2023/08/11 04:10:48;;;;;;;0.50;0.40;;;14.80;99.90;;;;;;5047389;28;20468;-78
2023/08/11 04:13:14;;;;;;;0.50;0.40;;;14.90;99.90;;;;;;5049869;28;20447;-77
2023/08/11 04:15:45;;;;;;;0.50;0.40;;;14.80;99.90;;;;;;5047532;28;20439;-79
2023/08/11 04:18:12;;;;;;;0.50;0.40;;;14.80;99.90;;;;;;5048594;28;20463;-79
2023/08/11 04:20:40;;;;;;;0.50;0.40;;;14.80;99.90;;;;;;5049138;28;20468;-79
2023/08/11 04:23:07;;;;;;;1.33;1.23;;;14.80;99.90;;;;;;5051332;28;20443;-79
2023/08/11 04:25:34;;;;;;;0.50;0.40;;;14.80;99.90;;;;;;5052567;28;20452;-79
2023/08/11 04:28:02;;;;;;;0.50;0.40;;;14.70;99.90;;;;;;5049186;28;20479;-79
2023/08/11 04:30:29;;;;;;;0.50;0.40;;;14.80;99.90;;;;;;5049197;28;20466;-79
2023/08/11 04:32:57;;;;;;;0.50;0.40;;;14.80;99.90;;;;;;5050311;28;20437;-78
2023/08/11 04:35:24;;;;;;;0.50;0.40;;;14.70;99.90;;;;;;5050280;28;20439;-78
2023/08/11 04:37:51;;;;;;;0.50;0.40;;;14.70;99.90;;;;;;5051563;28;20446;-78
2023/08/11 04:40:18;;;;;;;0.50;0.40;;;14.80;99.90;;;;;;5051357;28;20972;-79
2023/08/11 04:42:46;;;;;;;0.50;0.40;;;14.80;99.90;;;;;;5050484;28;20443;-79
2023/08/11 04:45:14;;;;;;;0.50;0.30;;;14.80;99.90;;;;;;5049209;28;20440;-79
2023/08/11 04:47:41;;;;;;;0.50;0.40;;;14.80;99.90;;;;;;5048675;28;20476;-78
2023/08/11 04:50:11;;;;;;;0.50;0.40;;;14.90;99.90;;;;;;5051696;28;20467;-79
2023/08/11 04:52:38;;;;;;;0.50;0.33;;;14.90;99.90;;;;;;5051334;28;20444;-80
2023/08/11 04:55:07;;;;;;;0.50;0.40;;;14.90;99.90;;;;;;5039724;28;20527;-79
2023/08/11 04:57:34;;;;;;;0.50;0.40;;;14.90;99.90;;;;;;5047645;28;20444;-79
2023/08/11 05:00:01;;;;;;;0.50;0.33;;;15.00;99.90;;;;;;5046909;28;20967;-79
2023/08/11 05:02:28;;;;;;;0.50;0.40;;;15.00;99.90;;;;;;5046896;28;20452;-79
2023/08/11 05:04:55;;;;;;;0.50;0.40;;;15.00;99.90;;;;;;5048557;28;20446;-78
2023/08/11 05:07:23;;;;;;;0.50;0.40;;;15.10;99.90;;;;;;5051151;28;20462;-79
2023/08/11 05:09:50;;;;;;;0.50;0.40;;;15.20;99.90;;;;;;5048510;28;22210;-78
2023/08/11 05:12:17;;;;;;;0.50;0.40;;;15.20;99.90;;;;;;5047444;28;20445;-79
2023/08/11 05:14:44;;;;;;;5.03;4.73;;;15.30;99.90;;;;;;5050018;28;20524;-79
2023/08/11 05:17:10;;;;;;;0.50;0.40;;;15.30;99.90;;;;;;5054884;28;20444;-78
2023/08/11 05:19:37;;;;;;;0.50;0.30;;;15.40;99.90;;;;;;5056655;28;20444;-79
2023/08/11 05:22:04;;;;;;;0.50;0.40;;;15.40;99.90;;;;;;5056188;28;20439;-77
2023/08/11 05:24:32;;;;;;;0.50;0.40;;;15.50;99.90;;;;;;5052098;28;20450;-79
2023/08/11 05:26:59;;;;;;;0.50;0.40;;;15.60;99.90;;;;;;5055534;28;20896;-79
2023/08/11 05:29:26;;;;;;;0.50;0.40;;;15.70;99.90;;;;;;5055859;28;20479;-79
2023/08/11 05:31:52;;;;;;;0.50;0.40;;;15.80;99.90;;;;;;5057998;28;20475;-79
2023/08/11 05:34:19;;;;;;;0.50;0.40;;;15.90;99.90;;;;;;5056119;28;20506;-79
2023/08/11 05:36:46;;;;;;;0.50;0.30;;;15.90;99.90;;;;;;5051352;28;21030;-79
2023/08/11 05:39:13;;;;;;;0.50;0.40;;;16.10;99.90;;;;;;5055961;28;20434;-79
2023/08/11 05:41:41;;;;;;;0.50;0.40;;;16.10;99.90;;;;;;5053857;28;20466;-78
2023/08/11 05:44:08;;;;;;;0.50;0.40;;;16.20;99.90;;;;;;5056242;28;20549;-80
2023/08/11 05:46:35;;;;;;;0.50;0.30;;;16.30;99.90;;;;;;5063760;28;20439;-80
2023/08/11 05:49:02;;;;;;;0.50;0.30;;;16.40;99.90;;;;;;5051808;28;20475;-78
2023/08/11 05:51:29;;;;;;;0.50;0.40;;;16.50;99.90;;;;;;5048494;28;20487;-78
2023/08/11 05:53:56;;;;;;;0.50;0.30;;;16.70;99.90;;;;;;5046712;28;20539;-78
2023/08/11 05:56:23;;;;;;;0.50;0.40;;;16.80;99.90;;;;;;5046714;28;20467;-78
2023/08/11 05:58:51;;;;;;;0.50;0.40;;;16.90;99.90;;;;;;5047714;28;20444;-77
2023/08/11 06:01:18;;;;;;;0.50;0.30;;;17.10;99.90;;;;;;5045394;28;20992;-78
2023/08/11 06:03:44;;;;;;;0.50;0.40;;;17.20;99.90;;;;;;5045649;28;20449;-78
2023/08/11 06:06:11;;;;;;;0.50;0.33;;;17.30;99.90;;;;;;5032621;28;20444;-77
2023/08/11 06:08:38;;;;;;;0.50;0.40;;;17.60;99.90;;;;;;5049010;28;20482;-77
2023/08/11 06:11:04;;;;;;;0.50;0.40;;;17.90;99.90;;;;;;5046560;28;20558;-78
2023/08/11 06:13:32;;;;;;;0.50;0.40;;;18.40;99.90;;;;;;5045589;28;20533;-78
2023/08/11 06:16:00;;;;;;;0.50;0.40;;;18.80;99.90;;;;;;5046740;28;20543;-78
2023/08/11 06:18:28;;;;;;;0.50;0.40;;;19.20;99.90;;;;;;5049671;28;20446;-78
2023/08/11 06:20:55;;;;;;;0.50;0.30;;;19.60;99.90;;;;;;5048045;28;20468;-78
2023/08/11 06:23:21;;;;;;;0.50;0.30;;;19.80;99.90;;;;;;5048274;28;20449;-79
2023/08/11 06:25:48;;;;;;;0.50;0.40;;;20.30;99.90;;;;;;5050154;28;20555;-78
2023/08/11 06:28:16;;;;;;;0.50;0.30;;;20.70;99.90;;;;;;5052721;28;20530;-79
2023/08/11 06:30:43;;;;;;;0.87;0.83;;;21.20;99.90;;;;;;5052061;28;20476;-79
2023/08/11 06:33:11;;;;;;;0.50;0.30;;;21.60;99.90;;;;;;5049997;28;20441;-79
2023/08/11 06:35:38;;;;;;;0.80;0.57;;;21.90;99.90;;;;;;5049216;28;20524;-80
2023/08/11 06:38:05;;;;;;;0.50;0.30;;;22.40;99.90;;;;;;5052302;28;20441;-79
2023/08/11 06:40:31;;;;;;;0.50;0.40;;;23.00;99.90;;;;;;5053817;28;20460;-79
2023/08/11 06:42:58;;;;;;;0.50;0.30;;;23.70;99.90;;;;;;5051057;28;20451;-79
2023/08/11 06:45:25;;;;;;;0.50;0.40;;;24.40;99.90;;;;;;5049878;28;20502;-79
2023/08/11 06:47:52;;;;;;;0.50;0.43;;;25.40;99.90;;;;;;5049612;28;20956;-78
2023/08/11 06:50:20;;;;;;;0.50;0.33;;;25.50;99.90;;;;;;5053517;28;20974;-79
2023/08/11 06:52:47;;;;;;;0.50;0.30;;;26.10;99.90;;;;;;5044721;28;20444;-78
2023/08/11 06:55:14;;;;;;;0.50;0.30;;;26.30;99.90;;;;;;5051922;28;20929;-80
2023/08/11 06:57:40;;;;;;;0.50;0.40;;;26.20;99.90;;;;;;5048652;28;20437;-79
2023/08/11 07:00:08;;;;;;;0.50;0.40;;;26.40;99.90;;;;;;5038477;28;20489;-80
2023/08/11 07:02:35;;;;;;;0.50;0.30;;;27.00;99.90;;;;;;5048691;28;20439;-80
2023/08/11 07:05:03;;;;;;;0.50;0.40;;;27.50;99.90;;;;;;5050592;28;20444;-79
2023/08/11 07:07:31;;;;;;;0.50;0.40;;;27.50;95.50;;;;;;5049777;28;20447;-80
2023/08/11 07:09:58;;;;;;;0.50;0.30;;;27.40;96.60;;;;;;5052245;28;20480;-79
2023/08/11 07:12:25;;;;;;;0.50;0.40;;;27.40;98.00;;;;;;5051506;28;20452;-79
2023/08/11 07:14:52;;;;;;;0.50;0.30;;;27.50;95.10;;;;;;5052161;28;20553;-80
2023/08/11 07:17:19;;;;;;;0.50;0.30;;;27.90;94.80;;;;;;5043242;28;20436;-80
2023/08/11 07:19:46;;;;;;;0.50;0.30;;;27.60;95.30;;;;;;5052511;28;20466;-81
2023/08/11 07:22:13;;;;;;;0.50;0.30;;;28.20;95.90;;;;;;5054119;28;20444;-81
2023/08/11 07:24:41;;;;;;;0.70;0.70;;;28.60;96.60;;;;;;5055780;28;20444;-78
2023/08/11 07:27:08;;;;;;;0.50;0.30;;;28.70;92.10;;;;;;5052716;28;20443;-81
2023/08/11 07:29:34;;;;;;;0.50;0.40;;;28.70;92.40;;;;;;5052615;28;20562;-81
2023/08/11 07:32:04;;;;;;;0.50;0.30;;;28.80;90.10;;;;;;5052872;28;20449;-80
2023/08/11 07:34:30;;;;;;;0.70;0.70;;;28.70;88.40;;;;;;5055058;28;20443;-81
2023/08/11 07:36:57;;;;;;;0.50;0.30;;;28.80;87.00;;;;;;5054677;28;20465;-80
2023/08/11 07:39:24;;;;;;;0.50;0.30;;;29.10;85.50;;;;;;5050752;28;20441;-79
2023/08/11 07:41:52;;;;;;;0.50;0.30;;;29.00;84.60;;;;;;5050172;28;20465;-80
2023/08/11 07:44:19;;;;;;;0.50;0.30;;;28.90;84.60;;;;;;5053911;28;20453;-80
2023/08/11 07:46:46;;;;;;;0.50;0.30;;;28.70;85.10;;;;;;5054071;28;20446;-80
2023/08/11 07:49:12;;;;;;;0.50;0.30;;;28.90;88.00;;;;;;5052664;28;20542;-80
2023/08/11 07:51:40;;;;;;;0.50;0.30;;;29.30;87.70;;;;;;5058344;28;20892;-81
2023/08/11 07:54:07;;;;;;;0.50;0.30;;;30.10;88.60;;;;;;5053611;28;20996;-79
2023/08/11 07:56:34;;;;;;;0.50;0.30;;;30.60;83.00;;;;;;5051500;28;20450;-79
2023/08/11 07:59:02;;;;;;;0.50;0.30;;;30.80;80.60;;;;;;5052836;28;20503;-80
2023/08/11 08:01:29;;;;;;;0.50;0.30;;;30.90;80.90;;;;;;5055541;28;20474;-80
2023/08/11 08:03:56;;;;;;;0.40;0.30;;;31.70;81.20;;;;;;5055369;28;20925;-81
2023/08/11 08:06:23;;;;;;;0.50;0.30;;;32.10;77.90;;;;;;5043631;28;20440;-80
2023/08/11 08:08:50;;;;;;;0.50;0.30;;;31.60;72.20;;;;;;5050997;28;20543;-80
2023/08/11 08:11:17;;;;;;;0.43;0.30;;;30.90;73.50;;;;;;5053723;28;20491;-80
2023/08/11 08:13:44;;;;;;;0.50;0.30;;;30.50;74.70;;;;;;5048141;28;20480;-79
2023/08/11 08:16:12;;;;;;;0.50;0.40;;;30.70;77.20;;;;;;5052649;28;20533;-80
2023/08/11 08:18:39;;;;;;;0.50;0.30;;;30.50;76.60;;;;;;5054403;28;20967;-81
2023/08/11 08:21:06;;;;;;;0.43;0.30;;;30.80;76.40;;;;;;5054043;28;20482;-80
2023/08/11 08:23:33;;;;;;;0.50;0.30;;;31.50;74.90;;;;;;5052254;28;20451;-81
2023/08/11 08:26:00;;;;;;;0.50;0.30;;;32.00;75.80;;;;;;5052246;28;20521;-77
2023/08/11 08:28:26;;;;;;;0.53;0.53;;;32.20;75.70;;;;;;5056420;28;20440;-81
2023/08/11 08:30:53;;;;;;;0.50;0.30;;;32.20;72.30;;;;;;5055504;28;20556;-79
2023/08/11 08:33:21;;;;;;;0.47;0.30;;;32.60;71.20;;;;;;5052158;28;20534;-80
2023/08/11 08:35:48;;;;;;;0.50;0.30;;;32.90;70.70;;;;;;5051417;28;20457;-80
2023/08/11 08:38:15;;;;;;;0.77;0.77;;;33.00;67.70;;;;;;5053745;28;20795;-81
2023/08/11 08:40:42;;;;;;;0.50;0.30;;;32.50;68.80;;;;;;5055030;28;20521;-81
2023/08/11 08:43:09;;;;;;;0.40;0.30;;;32.60;68.10;;;;;;5046688;28;20441;-80
2023/08/11 08:45:38;;;;;;;0.47;0.37;;;32.60;65.90;;;;;;5055373;28;20464;-80
2023/08/11 08:48:08;;;;;;;0.50;0.30;;;32.70;67.20;;;;;;5054691;28;20443;-80
2023/08/11 08:50:38;;;;;;;0.50;0.30;;;33.00;68.90;;;;;;5054349;28;20487;-77
2023/08/11 08:53:04;;;;;;;0.47;0.30;;;33.60;68.60;;;;;;5056582;28;20535;-80
2023/08/11 08:55:32;;;;;;;0.40;0.30;;;34.20;64.20;;;;;;5058385;28;20446;-81
2023/08/11 08:58:00;;;;;;;0.43;0.30;;;34.30;66.10;;;;;;5059732;28;20453;-81
2023/08/11 09:00:28;;;;;;;0.50;0.40;;;34.80;65.50;;;;;;5046674;28;20529;-80
2023/08/11 09:02:55;;;;;;;0.40;0.30;;;34.80;65.40;;;;;;5055463;28;20456;-81
2023/08/11 09:05:22;;;;;;;0.40;0.30;;;34.20;61.60;;;;;;5058253;28;21740;-81
2023/08/11 09:07:51;;;;;;;0.40;0.30;;;34.10;62.50;;;;;;5059509;28;20445;-81
2023/08/11 09:10:18;;;;;;;0.40;0.30;;;34.20;62.40;;;;;;5050037;28;20992;-79
2023/08/11 09:12:45;;;;;;;0.40;0.30;;;33.90;61.20;;;;;;5048527;28;20437;-78
2023/08/11 09:15:13;;;;;;;0.40;0.30;;;33.70;61.40;;;;;;5047299;28;20452;-79
2023/08/11 09:17:40;;;;;;;0.40;0.30;;;34.00;62.00;;;;;;5046007;28;20444;-81
2023/08/11 09:20:10;;;;;;;0.40;0.30;;;34.30;64.90;;;;;;5058403;28;20468;-79
2023/08/11 09:22:38;;;;;;;0.40;0.30;;;34.70;60.90;;;;;;5047623;28;20517;-78
2023/08/11 09:25:07;;;;;;;0.40;0.30;;;34.40;59.20;;;;;;5043463;28;20512;-77
2023/08/11 09:27:34;;;;;;;0.40;0.30;;;34.10;60.40;;;;;;5053199;28;20448;-79
2023/08/11 09:30:01;;;;;;;0.40;0.30;;;34.00;60.10;;;;;;5052954;28;20501;-79
2023/08/11 09:32:27;;;;;;;0.40;0.30;;;34.30;60.60;;;;;;5041272;28;20808;-78
2023/08/11 09:34:54;;;;;;;0.40;0.30;;;34.70;59.50;;;;;;5056591;28;20435;-79
2023/08/11 09:37:21;;;;;;;1.83;1.67;;;34.90;59.30;;;;;;5059255;28;20446;-79
2023/08/11 09:39:50;;;;;;;0.40;0.30;;;34.80;58.80;;;;;;5047296;28;20433;-78
2023/08/11 09:42:19;;;;;;;0.40;0.30;;;35.00;61.40;;;;;;5053350;28;20830;-79
2023/08/11 09:44:46;;;;;;;0.40;0.30;;;35.50;59.70;;;;;;5047357;28;20481;-78
2023/08/11 09:47:13;;;;;;;0.40;0.30;;;35.70;60.90;;;;;;5051189;28;20448;-80
2023/08/11 09:49:41;;;;;;;0.47;0.30;;;36.40;59.00;;;;;;5061417;28;20483;-80
2023/08/11 09:52:09;;;;;;;0.40;0.30;;;36.20;57.40;;;;;;5053438;28;20454;-78
2023/08/11 09:54:36;;;;;;;0.40;0.30;;;35.90;58.00;;;;;;5048812;28;20920;-79
2023/08/11 09:57:05;;;;;;;1.83;1.13;;;36.20;60.40;;;;;;5049166;28;20825;-80
2023/08/11 09:59:33;;;;;;;0.40;0.30;;;35.90;59.40;;;;;;5052769;28;20525;-79
2023/08/11 10:02:03;;;;;;;0.40;0.30;;;36.30;63.30;;;;;;5045526;28;20434;-79
2023/08/11 10:04:35;;;;;;;0.50;0.40;;;36.70;58.40;;;;;;5058843;28;20822;-79
2023/08/11 10:07:04;;;;;;;0.40;0.30;;;37.00;56.20;;;;;;5040960;28;20431;-79
2023/08/11 10:09:34;;;;;;;0.40;0.30;;;36.40;56.10;;;;;;5058176;28;20969;-78
2023/08/11 10:12:02;;;;;;;0.40;0.30;;;36.30;56.70;;;;;;5041423;28;20439;-79
2023/08/11 10:14:29;;;;;;;0.40;0.30;;;36.30;58.80;;;;;;5050549;28;20584;-80
2023/08/11 10:16:59;;;;;;;0.60;0.60;;;36.40;56.40;;;;;;5055381;28;20445;-79
2023/08/11 10:19:27;;;;;;;0.40;0.30;;;36.40;55.40;;;;;;5050768;28;20431;-80
2023/08/11 10:21:54;;;;;;;0.40;0.30;;;36.00;56.00;;;;;;5041868;28;20464;-79
2023/08/11 10:24:21;;;;;;;0.40;0.30;;;35.70;56.20;;;;;;5049027;28;20442;-80
2023/08/11 10:26:48;;;;;;;0.60;0.43;;;35.90;58.80;;;;;;5055095;28;20446;-80
2023/08/11 10:29:16;;;;;;;0.40;0.30;;;36.30;55.80;;;;;;5053363;28;20528;-78
2023/08/11 10:31:55;;;;;;;0.57;0.57;;;36.30;55.90;;;;;;5061559;28;20564;-79
2023/08/11 10:34:24;;;;;;;0.40;0.30;;;36.90;56.20;;;;;;5052671;28;20499;-79
2023/08/11 10:36:51;;;;;;;0.40;0.30;;;36.50;54.80;;;;;;5054663;28;20445;-78
2023/08/11 10:39:19;;;;;;;0.83;0.40;;;36.20;58.60;;;;;;5049324;28;20935;-78
2023/08/11 10:41:47;;;;;;;0.40;0.30;;;36.20;55.20;;;;;;5055806;28;20531;-79
2023/08/11 10:44:17;;;;;;;0.40;0.30;;;36.20;56.50;;;;;;5041047;28;20460;-78
2023/08/11 10:46:45;;;;;;;0.40;0.30;;;36.30;56.90;;;;;;5039397;28;20493;-76
2023/08/11 10:49:32;;;;;;;0.60;0.40;;;36.00;55.00;;;;;;5048963;28;20475;-78
2023/08/11 10:52:00;;;;;;;0.40;0.30;;;35.80;57.60;;;;;;5041008;28;20423;-79
2023/08/11 10:54:28;;;;;;;0.40;0.30;;;36.20;56.10;;;;;;5058720;28;20445;-79
2023/08/11 10:56:55;;;;;;;0.40;0.30;;;36.60;56.30;;;;;;5046752;28;20439;-80
2023/08/11 10:59:24;;;;;;;0.40;0.30;;;37.30;56.00;;;;;;5041896;28;20446;-82
2023/08/11 11:01:53;;;;;;;0.40;0.30;;;38.00;54.30;;;;;;5039825;28;20473;-84
2023/08/11 11:04:22;;;;;;;0.40;0.30;;;37.70;51.60;;;;;;5040004;28;20468;-82
2023/08/11 11:06:51;;;;;;;0.40;0.30;;;37.50;54.50;;;;;;5051244;28;20453;-83
2023/08/11 11:09:18;;;;;;;0.90;0.77;;;37.40;54.40;;;;;;5060637;28;20429;-80
2023/08/11 11:11:45;;;;;;;0.40;0.30;;;37.50;53.00;;;;;;5063589;28;20487;-80
2023/08/11 11:14:13;;;;;;;0.40;0.30;;;37.30;55.80;;;;;;5062003;28;20922;-81
2023/08/11 11:16:41;;;;;;;0.40;0.30;;;36.10;54.50;;;;;;5064118;28;20925;-81
2023/08/11 11:19:09;;;;;;;0.40;0.30;;;35.50;57.20;;;;;;5063075;28;20444;-80
2023/08/11 11:21:38;;;;;;;0.40;0.30;;;35.80;56.00;;;;;;5063672;28;20442;-81
2023/08/11 11:24:07;;;;;;;0.40;0.30;;;36.20;55.90;;;;;;5062786;28;20430;-81
2023/08/11 11:26:34;;;;;;;1.27;1.17;;;36.50;55.00;;;;;;5063007;28;20440;-80
2023/08/11 11:29:02;;;;;;;0.40;0.30;;;36.90;56.00;;;;;;5062113;28;20440;-82
2023/08/11 11:31:32;;;;;;;0.63;0.63;;;36.10;54.10;;;;;;5062144;28;20478;-80
2023/08/11 11:33:59;;;;;;;0.40;0.30;;;36.00;54.40;;;;;;5060566;28;20432;-80
2023/08/11 11:36:26;;;;;;;0.40;0.30;;;36.30;57.60;;;;;;5063546;28;20442;-80
2023/08/11 11:38:53;;;;;;;0.40;0.30;;;36.30;55.20;;;;;;5062727;28;20994;-80
2023/08/11 11:41:21;;;;;;;2.10;1.37;;;36.60;54.50;;;;;;5061337;28;20540;-81
2023/08/11 11:43:49;;;;;;;0.40;0.30;;;36.40;53.70;;;;;;5061756;28;20437;-81
2023/08/11 11:46:18;;;;;;;0.40;0.30;;;35.90;54.00;;;;;;5045902;28;20456;-80
2023/08/11 11:48:46;;;;;;;0.40;0.30;;;35.80;55.80;;;;;;5040877;28;20465;-80
2023/08/11 11:51:14;;;;;;;0.40;0.40;;;36.50;55.30;;;;;;5041754;28;20546;-79
2023/08/11 11:53:43;;;;;;;0.40;0.30;;;35.80;54.40;;;;;;5040585;28;20502;-78
2023/08/11 11:56:13;;;;;;;0.40;0.30;;;35.70;55.50;;;;;;5042116;28;20525;-81
2023/08/11 11:58:43;;;;;;;0.60;0.60;;;36.50;56.00;;;;;;5042738;28;20518;-80
2023/08/11 12:01:14;;;;;;;0.43;0.40;;;37.10;55.20;;;;;;5041923;28;20509;-80
2023/08/11 12:03:41;;;;;;;0.40;0.30;;;37.30;57.40;;;;;;5042004;28;20498;-77
2023/08/11 12:06:08;;;;;;;0.40;0.30;;;37.60;57.00;;;;;;5041738;28;20529;-79
2023/08/11 12:08:36;;;;;;;1.23;1.13;;;37.60;54.50;;;;;;5043797;28;20952;-80
2023/08/11 12:11:03;;;;;;;0.40;0.30;;;36.90;55.50;;;;;;5042863;28;20549;-82
2023/08/11 12:13:31;;;;;;;0.40;0.30;;;37.00;57.10;;;;;;5041309;28;20449;-81
2023/08/11 12:16:00;;;;;;;0.40;0.30;;;37.00;54.70;;;;;;5041824;28;20438;-81
2023/08/11 12:18:28;;;;;;;0.50;0.50;;;37.00;56.00;;;;;;5042699;28;20449;-80
2023/08/11 12:20:58;;;;;;;0.63;0.60;;;37.00;56.90;;;;;;5042961;28;20461;-81
2023/08/11 12:23:25;;;;;;;0.40;0.30;;;37.00;56.10;;;;;;5041502;28;20454;-80
2023/08/11 12:25:52;;;;;;;0.40;0.30;;;37.10;55.90;;;;;;5043491;28;20922;-82
2023/08/11 12:28:19;;;;;;;0.40;0.30;;;37.30;56.90;;;;;;5047255;28;20448;-80
2023/08/11 12:30:46;;;;;;;0.40;0.40;;;37.60;55.10;;;;;;5037528;28;20487;-81
2023/08/11 12:33:14;;;;;;;0.40;0.30;;;37.70;55.90;;;;;;5046664;28;20472;-80
2023/08/11 12:35:41;;;;;;;0.40;0.30;;;37.20;55.10;;;;;;5044796;28;20500;-80
2023/08/11 12:38:12;;;;;;;0.40;0.30;;;37.50;56.20;;;;;;5043421;28;20446;-79
2023/08/11 12:40:39;;;;;;;0.40;0.33;;;38.00;54.60;;;;;;5042970;28;20840;-78
2023/08/11 12:43:05;;;;;;;0.40;0.30;;;37.90;54.60;;;;;;5043645;28;20448;-79
2023/08/11 12:45:32;;;;;;;0.40;0.30;;;37.30;56.30;;;;;;5044551;28;20430;-81
2023/08/11 12:47:59;;;;;;;0.40;0.30;;;37.40;57.20;;;;;;5045577;28;20919;-81
2023/08/11 12:50:28;;;;;;;3.23;0.70;;;37.90;57.00;;;;;;5045148;28;21037;-81